createdAt,value
2023-03-22T00:00:09.228Z,4.90
2023-03-22T00:00:41.728Z,4.60
2023-03-22T00:01:14.182Z,5.10
2023-03-22T00:01:46.674Z,4.80
2023-03-22T00:02:19.147Z,5.10
2023-03-22T00:02:51.617Z,5.00
2023-03-22T00:03:24.181Z,4.30
2023-03-22T00:03:56.543Z,4.40
2023-03-22T00:04:29.010Z,5.00
2023-03-22T00:05:01.557Z,5.50
2023-03-22T00:05:34.022Z,5.10
2023-03-22T00:06:06.502Z,4.70
2023-03-22T00:06:38.951Z,5.20
2023-03-22T00:07:11.384Z,5.30
2023-03-22T00:07:43.865Z,5.00
2023-03-22T00:08:16.316Z,4.70
2023-03-22T00:08:48.865Z,4.90
2023-03-22T00:09:21.347Z,5.10
2023-03-22T00:09:53.827Z,5.20
2023-03-22T00:10:26.263Z,5.80
2023-03-22T00:10:58.737Z,5.50
2023-03-22T00:11:31.211Z,5.20
2023-03-22T00:12:03.676Z,5.00
2023-03-22T00:12:36.167Z,5.00
2023-03-22T00:13:08.639Z,5.10
2023-03-22T00:13:41.092Z,4.80
2023-03-22T00:14:13.622Z,4.40
2023-03-22T00:14:46.050Z,4.30
2023-03-22T00:15:18.486Z,5.00
2023-03-22T00:15:51.031Z,5.00
2023-03-22T00:16:23.526Z,4.90
2023-03-22T00:16:55.904Z,5.10
2023-03-22T00:17:28.345Z,4.30
2023-03-22T00:18:00.835Z,4.10
2023-03-22T00:18:33.302Z,4.50
2023-03-22T00:19:05.771Z,4.10
2023-03-22T00:19:38.283Z,3.80
2023-03-22T00:20:10.774Z,4.40
2023-03-22T00:20:43.234Z,4.90
2023-03-22T00:21:15.716Z,5.30
2023-03-22T00:21:48.163Z,4.80
2023-03-22T00:22:20.652Z,4.30
2023-03-22T00:22:53.144Z,4.70
2023-03-22T00:23:25.617Z,5.10
2023-03-22T00:23:58.036Z,5.10
2023-03-22T00:24:30.480Z,5.50
2023-03-22T00:25:02.941Z,5.00
2023-03-22T00:25:35.388Z,4.60
2023-03-22T00:26:07.925Z,4.10
2023-03-22T00:26:40.403Z,4.70
2023-03-22T00:27:12.910Z,4.70
2023-03-22T00:27:45.360Z,4.90
2023-03-22T00:28:17.824Z,5.60
2023-03-22T00:28:50.264Z,5.50
2023-03-22T00:29:22.707Z,5.10
2023-03-22T00:29:55.173Z,5.10
2023-03-22T00:30:27.663Z,5.10
2023-03-22T00:31:00.172Z,4.20
2023-03-22T00:31:32.635Z,4.20
2023-03-22T00:32:05.085Z,4.60
2023-03-22T00:32:37.551Z,4.80
2023-03-22T00:33:09.997Z,4.70
2023-03-22T00:33:42.484Z,4.90
2023-03-22T00:34:14.950Z,4.60
2023-03-22T00:34:47.470Z,5.10
2023-03-22T00:35:20.001Z,5.20
2023-03-22T00:35:52.397Z,5.00
2023-03-22T00:36:24.853Z,4.80
2023-03-22T00:36:57.296Z,4.40
2023-03-22T00:37:29.764Z,4.10
2023-03-22T00:38:02.209Z,4.90
2023-03-22T00:38:42.028Z,4.90
2023-03-22T00:39:07.116Z,4.40
2023-03-22T00:39:39.588Z,4.90
2023-03-22T00:40:12.145Z,5.10
2023-03-22T00:40:44.600Z,5.40
2023-03-22T00:41:17.053Z,5.00
2023-03-22T00:41:49.517Z,4.60
2023-03-22T00:42:21.973Z,4.90
2023-03-22T00:42:54.439Z,4.80
2023-03-22T00:43:26.906Z,5.20
2023-03-22T00:43:59.376Z,5.20
2023-03-22T00:44:31.826Z,4.80
2023-03-22T00:45:04.272Z,4.70
2023-03-22T00:45:36.716Z,5.10
2023-03-22T00:46:09.236Z,4.60
2023-03-22T00:46:41.583Z,4.40
2023-03-22T00:47:14.077Z,4.70
2023-03-22T00:47:46.625Z,4.60
2023-03-22T00:48:19.108Z,4.70
2023-03-22T00:48:51.508Z,5.30
2023-03-22T00:49:23.941Z,4.90
2023-03-22T00:49:56.445Z,4.50
2023-03-22T00:50:28.878Z,4.80
2023-03-22T00:51:01.353Z,4.90
2023-03-22T00:51:33.839Z,5.00
2023-03-22T00:52:06.272Z,4.40
2023-03-22T00:52:38.735Z,4.80
2023-03-22T00:53:11.246Z,4.90
2023-03-22T00:53:43.899Z,5.30
2023-03-22T00:54:16.160Z,5.30
2023-03-22T00:54:48.583Z,4.90
2023-03-22T00:55:21.046Z,5.00
2023-03-22T00:55:53.627Z,5.10
2023-03-22T00:56:26.044Z,5.50
2023-03-22T00:56:58.504Z,4.90
2023-03-22T00:57:30.968Z,4.60
2023-03-22T00:58:03.447Z,4.80
2023-03-22T00:58:35.967Z,4.70
2023-03-22T00:59:08.419Z,4.80
2023-03-22T00:59:40.960Z,5.30
2023-03-22T01:00:13.440Z,5.10
2023-03-22T01:00:45.954Z,5.00
2023-03-22T01:01:18.371Z,5.40
2023-03-22T01:01:50.773Z,5.20
2023-03-22T01:02:23.217Z,5.50
2023-03-22T01:02:55.742Z,5.10
2023-03-22T01:03:28.243Z,4.80
2023-03-22T01:04:00.858Z,5.40
2023-03-22T01:04:33.199Z,5.00
2023-03-22T01:05:05.681Z,5.20
2023-03-22T01:05:38.173Z,5.60
2023-03-22T01:06:10.626Z,5.40
2023-03-22T01:06:43.064Z,5.40
2023-03-22T01:07:15.501Z,5.10
2023-03-22T01:07:47.963Z,5.50
2023-03-22T01:08:20.451Z,5.60
2023-03-22T01:08:52.891Z,5.10
2023-03-22T01:09:25.359Z,5.10
2023-03-22T01:09:57.828Z,5.30
2023-03-22T01:10:30.249Z,5.50
2023-03-22T01:11:02.709Z,5.40
2023-03-22T01:11:35.155Z,5.40
2023-03-22T01:12:07.652Z,5.50
2023-03-22T01:12:40.108Z,5.60
2023-03-22T01:13:12.566Z,6.20
2023-03-22T01:13:45.037Z,5.60
2023-03-22T01:14:17.508Z,5.50
2023-03-22T01:14:49.964Z,5.50
2023-03-22T01:15:22.408Z,5.70
2023-03-22T01:15:54.840Z,5.60
2023-03-22T01:16:27.310Z,5.60
2023-03-22T01:16:59.756Z,5.60
2023-03-22T01:17:32.176Z,5.70
2023-03-22T01:18:04.689Z,5.70
2023-03-22T01:18:37.149Z,5.40
2023-03-22T01:19:09.596Z,5.30
2023-03-22T01:19:42.106Z,5.80
2023-03-22T01:20:14.585Z,5.50
2023-03-22T01:20:47.052Z,5.50
2023-03-22T01:21:19.517Z,5.60
2023-03-22T01:21:51.934Z,6.50
2023-03-22T01:22:24.366Z,6.70
2023-03-22T01:22:56.790Z,6.70
2023-03-22T01:23:29.251Z,6.50
2023-03-22T01:24:01.685Z,5.40
2023-03-22T01:24:34.130Z,4.90
2023-03-22T01:25:06.609Z,5.30
2023-03-22T01:25:39.068Z,5.80
2023-03-22T01:26:11.521Z,6.30
2023-03-22T01:26:43.970Z,6.20
2023-03-22T01:27:16.436Z,5.70
2023-03-22T01:27:48.904Z,5.30
2023-03-22T01:28:21.398Z,6.10
2023-03-22T01:28:53.907Z,6.10
2023-03-22T01:29:26.381Z,5.60
2023-03-22T01:29:58.844Z,5.60
2023-03-22T01:30:31.362Z,6.60
2023-03-22T01:31:03.815Z,6.00
2023-03-22T01:31:36.223Z,5.60
2023-03-22T01:32:08.726Z,5.50
2023-03-22T01:32:41.164Z,6.30
2023-03-22T01:33:13.637Z,6.00
2023-03-22T01:33:46.107Z,6.10
2023-03-22T01:34:18.524Z,5.80
2023-03-22T01:34:50.961Z,5.60
2023-03-22T01:35:23.432Z,5.20
2023-03-22T01:35:55.907Z,5.60
2023-03-22T01:36:28.294Z,5.40
2023-03-22T01:37:00.852Z,5.40
2023-03-22T01:37:33.313Z,5.90
2023-03-22T01:38:05.809Z,6.10
2023-03-22T01:38:38.308Z,6.00
2023-03-22T01:39:10.801Z,5.60
2023-03-22T01:39:43.296Z,5.40
2023-03-22T01:40:15.785Z,5.50
2023-03-22T01:40:48.241Z,5.50
2023-03-22T01:41:20.700Z,6.00
2023-03-22T01:41:53.207Z,6.20
2023-03-22T01:42:25.667Z,6.00
2023-03-22T01:42:58.118Z,5.90
2023-03-22T01:43:30.599Z,5.50
2023-03-22T01:44:03.045Z,5.80
2023-03-22T01:44:35.541Z,6.10
2023-03-22T01:45:08.022Z,5.30
2023-03-22T01:45:40.444Z,5.20
2023-03-22T01:46:12.935Z,6.30
2023-03-22T01:46:45.409Z,5.40
2023-03-22T01:47:18.047Z,5.20
2023-03-22T01:47:51.166Z,5.60
2023-03-22T01:48:23.034Z,5.50
2023-03-22T01:48:55.508Z,5.80
2023-03-22T01:49:27.990Z,5.70
2023-03-22T01:50:00.410Z,5.90
2023-03-22T01:50:32.889Z,5.50
2023-03-22T01:51:05.367Z,5.40
2023-03-22T01:51:37.801Z,5.60
2023-03-22T01:52:10.269Z,5.60
2023-03-22T01:52:42.749Z,6.20
2023-03-22T01:53:15.189Z,6.10
2023-03-22T01:53:47.643Z,6.00
2023-03-22T01:54:20.130Z,6.00
2023-03-22T01:54:52.623Z,5.30
2023-03-22T01:55:25.046Z,5.90
2023-03-22T01:55:57.509Z,6.40
2023-03-22T01:56:29.964Z,5.50
2023-03-22T01:57:02.419Z,5.60
2023-03-22T01:57:34.905Z,6.30
2023-03-22T01:58:07.405Z,6.20
2023-03-22T01:58:39.805Z,6.50
2023-03-22T01:59:12.268Z,6.10
2023-03-22T01:59:44.735Z,5.50
2023-03-22T02:00:17.208Z,5.40
2023-03-22T02:00:49.682Z,4.80
2023-03-22T02:01:22.217Z,5.20
2023-03-22T02:01:54.571Z,5.50
2023-03-22T02:02:27.092Z,5.00
2023-03-22T02:02:59.545Z,5.10
2023-03-22T02:03:31.965Z,5.80
2023-03-22T02:04:04.449Z,5.70
2023-03-22T02:04:36.961Z,5.50
2023-03-22T02:05:09.463Z,5.50
2023-03-22T02:05:41.887Z,5.80
2023-03-22T02:06:14.440Z,5.70
2023-03-22T02:06:46.946Z,6.10
2023-03-22T02:07:19.412Z,6.20
2023-03-22T02:07:51.867Z,6.60
2023-03-22T02:08:24.336Z,5.90
2023-03-22T02:08:56.788Z,5.80
2023-03-22T02:09:29.278Z,6.20
2023-03-22T02:10:01.788Z,6.40
2023-03-22T02:10:34.259Z,5.90
2023-03-22T02:11:06.684Z,5.20
2023-03-22T02:11:39.184Z,5.20
2023-03-22T02:12:11.708Z,5.30
2023-03-22T02:12:44.198Z,5.50
2023-03-22T02:13:16.685Z,6.30
2023-03-22T02:13:49.202Z,6.00
2023-03-22T02:14:23.348Z,5.40
2023-03-22T02:14:54.255Z,5.50
2023-03-22T02:15:26.707Z,5.90
2023-03-22T02:15:59.246Z,6.40
2023-03-22T02:16:31.625Z,6.20
2023-03-22T02:17:04.173Z,6.10
2023-03-22T02:17:36.542Z,6.20
2023-03-22T02:18:09.169Z,6.60
2023-03-22T02:18:41.575Z,6.20
2023-03-22T02:19:14.088Z,6.00
2023-03-22T02:19:46.609Z,6.40
2023-03-22T02:20:19.083Z,6.20
2023-03-22T02:20:51.568Z,6.30
2023-03-22T02:21:24.047Z,7.20
2023-03-22T02:21:56.526Z,6.20
2023-03-22T02:22:28.939Z,6.00
2023-03-22T02:23:01.408Z,6.50
2023-03-22T02:23:33.913Z,6.50
2023-03-22T02:24:06.409Z,5.40
2023-03-22T02:24:38.844Z,5.80
2023-03-22T02:25:11.319Z,6.20
2023-03-22T02:25:43.782Z,5.90
2023-03-22T02:26:16.302Z,6.10
2023-03-22T02:26:48.773Z,6.10
2023-03-22T02:27:21.263Z,6.60
2023-03-22T02:27:53.799Z,6.20
2023-03-22T02:28:26.289Z,5.70
2023-03-22T02:28:58.816Z,5.80
2023-03-22T02:29:31.314Z,5.80
2023-03-22T02:30:03.773Z,6.70
2023-03-22T02:30:36.406Z,5.80
2023-03-22T02:31:08.723Z,6.40
2023-03-22T02:31:41.172Z,6.80
2023-03-22T02:32:13.604Z,6.50
2023-03-22T02:32:46.112Z,6.90
2023-03-22T02:33:18.620Z,6.80
2023-03-22T02:33:51.096Z,6.70
2023-03-22T02:34:23.590Z,6.10
2023-03-22T02:34:56.043Z,6.20
2023-03-22T02:35:28.509Z,6.40
2023-03-22T02:36:01.041Z,6.20
2023-03-22T02:36:33.540Z,6.70
2023-03-22T02:37:05.975Z,6.40
2023-03-22T02:37:38.438Z,6.20
2023-03-22T02:38:10.925Z,6.30
2023-03-22T02:38:43.515Z,6.20
2023-03-22T02:39:15.964Z,6.00
2023-03-22T02:39:48.428Z,6.90
2023-03-22T02:40:20.990Z,7.40
2023-03-22T02:40:53.512Z,6.90
2023-03-22T02:41:25.990Z,6.80
2023-03-22T02:41:58.424Z,7.00
2023-03-22T02:42:30.860Z,7.30
2023-03-22T02:43:03.298Z,7.00
2023-03-22T02:43:35.805Z,7.00
2023-03-22T02:44:08.305Z,7.10
2023-03-22T02:44:40.726Z,7.40
2023-03-22T02:45:13.183Z,7.20
2023-03-22T02:45:45.654Z,6.60
2023-03-22T02:46:18.166Z,6.60
2023-03-22T02:46:50.601Z,7.10
2023-03-22T02:47:23.038Z,6.80
2023-03-22T02:47:55.548Z,7.10
2023-03-22T02:48:28.040Z,6.20
2023-03-22T02:49:00.564Z,6.20
2023-03-22T02:49:33.060Z,6.30
2023-03-22T02:50:05.506Z,6.80
2023-03-22T02:50:38.254Z,7.10
2023-03-22T02:51:10.384Z,6.10
2023-03-22T02:51:42.905Z,6.80
2023-03-22T02:52:15.372Z,6.50
2023-03-22T02:52:47.863Z,5.80
2023-03-22T02:53:20.354Z,6.30
2023-03-22T02:53:52.801Z,6.80
2023-03-22T02:54:25.257Z,7.60
2023-03-22T02:56:40.501Z,6.90
2023-03-22T02:57:12.941Z,6.50
2023-03-22T02:57:45.400Z,6.50
2023-03-22T02:58:17.853Z,7.00
2023-03-22T02:58:50.283Z,6.30
2023-03-22T02:59:22.720Z,6.70
2023-03-22T02:59:55.211Z,6.80
2023-03-22T03:00:27.672Z,6.50
2023-03-22T03:01:00.137Z,6.50
2023-03-22T03:01:32.553Z,6.40
2023-03-22T03:02:04.968Z,6.80
2023-03-22T03:02:37.474Z,5.80
2023-03-22T03:03:09.901Z,6.00
2023-03-22T03:03:42.397Z,6.20
2023-03-22T03:04:14.817Z,6.50
2023-03-22T03:04:47.274Z,6.70
2023-03-22T03:05:19.764Z,6.50
2023-03-22T03:05:52.191Z,6.50
2023-03-22T03:06:24.632Z,7.20
2023-03-22T03:06:57.083Z,7.40
2023-03-22T03:07:29.506Z,6.50
2023-03-22T03:08:01.980Z,7.00
2023-03-22T03:08:34.475Z,7.10
2023-03-22T03:09:06.923Z,6.40
2023-03-22T03:09:39.408Z,6.20
2023-03-22T03:10:11.850Z,7.10
2023-03-22T03:10:44.318Z,7.30
2023-03-22T03:11:16.746Z,6.50
2023-03-22T03:11:49.191Z,6.90
2023-03-22T03:12:21.675Z,6.90
2023-03-22T03:12:54.197Z,6.30
2023-03-22T03:13:26.649Z,7.30
2023-03-22T03:13:59.132Z,7.30
2023-03-22T03:14:31.603Z,6.60
2023-03-22T03:15:04.110Z,6.60
2023-03-22T03:15:36.572Z,6.30
2023-03-22T03:16:09.118Z,7.00
2023-03-22T03:16:41.574Z,7.10
2023-03-22T03:17:14.128Z,7.40
2023-03-22T03:17:46.674Z,7.40
2023-03-22T03:18:19.130Z,7.10
2023-03-22T03:18:51.580Z,7.20
2023-03-22T03:19:24.026Z,7.20
2023-03-22T03:19:56.517Z,7.20
2023-03-22T03:20:28.981Z,7.20
2023-03-22T03:21:01.399Z,6.70
2023-03-22T03:21:33.876Z,6.70
2023-03-22T03:22:06.337Z,6.80
2023-03-22T03:22:38.783Z,7.00
2023-03-22T03:23:11.209Z,6.90
2023-03-22T03:23:43.643Z,7.20
2023-03-22T03:24:16.063Z,7.50
2023-03-22T03:24:48.558Z,7.50
2023-03-22T03:25:21.041Z,7.00
2023-03-22T03:25:53.636Z,6.50
2023-03-22T03:26:26.073Z,7.20
2023-03-22T03:26:58.524Z,6.90
2023-03-22T03:27:30.984Z,6.00
2023-03-22T03:28:03.453Z,7.20
2023-03-22T03:28:36.060Z,7.60
2023-03-22T03:29:08.584Z,6.60
2023-03-22T03:29:41.104Z,6.10
2023-03-22T03:30:13.648Z,6.60
2023-03-22T03:30:46.129Z,6.60
2023-03-22T03:31:18.629Z,6.50
2023-03-22T03:31:51.117Z,6.60
2023-03-22T03:32:23.562Z,7.50
2023-03-22T03:32:56.042Z,7.80
2023-03-22T03:33:29.474Z,7.40
2023-03-22T03:34:01.964Z,7.20
2023-03-22T03:34:34.379Z,6.70
2023-03-22T03:35:06.816Z,7.00
2023-03-22T03:35:39.328Z,7.60
2023-03-22T03:36:11.690Z,7.10
2023-03-22T03:36:44.144Z,7.40
2023-03-22T03:37:16.628Z,7.50
2023-03-22T03:37:49.050Z,7.40
2023-03-22T03:38:21.518Z,6.80
2023-03-22T03:38:54.096Z,7.70
2023-03-22T03:39:26.520Z,7.60
2023-03-22T03:39:58.982Z,7.50
2023-03-22T03:40:31.502Z,7.70
2023-03-22T03:41:03.939Z,7.60
2023-03-22T03:41:36.384Z,7.40
2023-03-22T03:42:08.863Z,7.40
2023-03-22T03:42:41.319Z,7.60
2023-03-22T03:43:13.852Z,7.60
2023-03-22T03:43:46.361Z,7.30
2023-03-22T03:44:18.813Z,7.60
2023-03-22T03:44:51.282Z,7.90
2023-03-22T03:45:23.716Z,7.70
2023-03-22T03:45:56.242Z,8.00
2023-03-22T03:46:28.656Z,7.80
2023-03-22T03:47:01.177Z,7.80
2023-03-22T03:47:33.656Z,7.40
2023-03-22T03:48:06.157Z,7.60
2023-03-22T03:48:38.598Z,7.40
2023-03-22T03:49:11.040Z,7.20
2023-03-22T03:49:43.556Z,8.40
2023-03-22T03:50:16.026Z,8.40
2023-03-22T03:50:48.460Z,7.70
2023-03-22T03:51:20.984Z,7.60
2023-03-22T03:51:53.407Z,7.50
2023-03-22T03:52:25.893Z,7.10
2023-03-22T03:52:58.390Z,8.00
2023-03-22T03:53:30.798Z,8.50
2023-03-22T03:54:03.369Z,7.50
2023-03-22T03:54:35.871Z,6.70
2023-03-22T03:55:08.303Z,7.30
2023-03-22T03:55:40.753Z,7.40
2023-03-22T03:56:13.239Z,7.90
2023-03-22T03:56:45.712Z,8.20
2023-03-22T03:57:18.150Z,7.70
2023-03-22T03:57:50.590Z,7.50
2023-03-22T03:58:23.069Z,6.90
2023-03-22T03:58:55.535Z,7.70
2023-03-22T03:59:27.974Z,8.10
2023-03-22T04:00:00.436Z,7.50
2023-03-22T04:00:32.864Z,6.90
2023-03-22T04:01:05.282Z,7.10
2023-03-22T04:01:37.816Z,7.10
2023-03-22T04:02:10.327Z,7.40
2023-03-22T04:02:42.803Z,8.10
2023-03-22T04:03:15.328Z,8.60
2023-03-22T04:03:48.213Z,8.30
2023-03-22T04:04:20.843Z,7.90
2023-03-22T04:04:53.285Z,6.50
2023-03-22T04:05:25.789Z,6.80
2023-03-22T04:05:58.269Z,8.20
2023-03-22T04:06:30.713Z,8.00
2023-03-22T04:07:03.153Z,7.90
2023-03-22T04:07:35.703Z,7.80
2023-03-22T04:08:08.156Z,8.00
2023-03-22T04:08:40.732Z,8.20
2023-03-22T04:09:13.231Z,8.40
2023-03-22T04:09:45.683Z,7.80
2023-03-22T04:10:18.153Z,7.70
2023-03-22T04:10:50.597Z,8.20
2023-03-22T04:11:23.033Z,8.50
2023-03-22T04:11:55.532Z,8.20
2023-03-22T04:12:28.042Z,8.30
2023-03-22T04:13:00.505Z,8.10
2023-03-22T04:13:33.053Z,7.80
2023-03-22T04:14:05.503Z,8.90
2023-03-22T04:14:37.936Z,9.00
2023-03-22T04:15:10.384Z,8.70
2023-03-22T04:15:42.828Z,7.80
2023-03-22T04:16:15.288Z,8.40
2023-03-22T04:16:47.948Z,8.70
2023-03-22T04:17:20.261Z,8.20
2023-03-22T04:17:52.758Z,7.20
2023-03-22T04:18:25.243Z,7.20
2023-03-22T04:18:57.981Z,7.10
2023-03-22T04:19:30.427Z,7.70
2023-03-22T04:20:04.257Z,6.50
2023-03-22T04:20:35.491Z,6.80
2023-03-22T04:21:07.998Z,7.40
2023-03-22T04:21:40.514Z,7.70
2023-03-22T04:22:12.987Z,7.20
2023-03-22T04:22:45.445Z,7.70
2023-03-22T04:23:17.945Z,7.70
2023-03-22T04:23:50.452Z,7.20
2023-03-22T04:24:22.947Z,8.10
2023-03-22T04:24:55.411Z,8.50
2023-03-22T04:25:27.876Z,7.30
2023-03-22T04:26:00.351Z,7.50
2023-03-22T04:26:32.810Z,8.40
2023-03-22T04:27:05.223Z,8.30
2023-03-22T04:27:37.740Z,8.50
2023-03-22T04:28:10.201Z,8.00
2023-03-22T04:28:42.699Z,8.30
2023-03-22T04:29:15.152Z,8.50
2023-03-22T04:29:47.682Z,8.40
2023-03-22T04:30:20.284Z,7.60
2023-03-22T04:30:52.623Z,7.90
2023-03-22T04:31:25.116Z,7.20
2023-03-22T04:31:57.507Z,7.00
2023-03-22T04:32:29.956Z,8.00
2023-03-22T04:33:02.429Z,7.70
2023-03-22T04:33:34.872Z,7.20
2023-03-22T04:34:07.367Z,7.00
2023-03-22T04:34:39.771Z,7.30
2023-03-22T04:35:12.262Z,7.50
2023-03-22T04:35:44.774Z,7.80
2023-03-22T04:36:17.187Z,7.20
2023-03-22T04:36:49.631Z,7.30
2023-03-22T04:37:22.171Z,6.80
2023-03-22T04:37:54.686Z,6.90
2023-03-22T04:38:27.121Z,7.30
2023-03-22T04:38:59.562Z,7.00
2023-03-22T04:39:32.037Z,6.80
2023-03-22T04:40:04.584Z,8.00
2023-03-22T04:40:37.000Z,8.00
2023-03-22T04:41:09.498Z,7.60
2023-03-22T04:41:41.914Z,7.70
2023-03-22T04:42:14.412Z,7.50
2023-03-22T04:42:46.896Z,7.30
2023-03-22T04:43:19.369Z,7.00
2023-03-22T04:43:51.825Z,7.40
2023-03-22T04:44:24.289Z,7.70
2023-03-22T04:44:56.722Z,7.40
2023-03-22T04:45:29.306Z,7.70
2023-03-22T04:46:01.737Z,8.30
2023-03-22T04:46:34.191Z,7.40
2023-03-22T04:47:06.617Z,8.10
2023-03-22T04:47:39.073Z,7.70
2023-03-22T04:48:11.539Z,7.70
2023-03-22T04:48:44.085Z,7.40
2023-03-22T04:49:16.528Z,7.60
2023-03-22T04:49:48.980Z,9.10
2023-03-22T04:50:21.605Z,8.60
2023-03-22T04:50:54.064Z,7.10
2023-03-22T04:51:26.487Z,7.10
2023-03-22T04:51:58.999Z,7.40
2023-03-22T04:52:31.477Z,7.80
2023-03-22T04:53:03.971Z,7.70
2023-03-22T04:53:36.489Z,7.60
2023-03-22T04:54:09.016Z,7.50
2023-03-22T04:54:41.558Z,6.90
2023-03-22T04:55:14.138Z,7.30
2023-03-22T04:55:46.604Z,6.90
2023-03-22T04:56:19.073Z,7.00
2023-03-22T04:56:51.520Z,7.50
2023-03-22T04:57:24.000Z,7.70
2023-03-22T04:57:56.448Z,7.70
2023-03-22T04:58:28.961Z,6.80
2023-03-22T04:59:01.452Z,6.90
2023-03-22T04:59:33.960Z,7.60
2023-03-22T05:00:06.413Z,7.30
2023-03-22T05:00:39.241Z,7.50
2023-03-22T05:01:11.458Z,7.50
2023-03-22T05:01:43.940Z,7.30
2023-03-22T05:02:16.331Z,7.60
2023-03-22T05:02:48.816Z,7.20
2023-03-22T05:03:21.256Z,7.30
2023-03-22T05:03:53.715Z,7.50
2023-03-22T05:04:26.206Z,6.90
2023-03-22T05:04:58.652Z,6.90
2023-03-22T05:05:31.157Z,6.70
2023-03-22T05:06:03.624Z,6.60
2023-03-22T05:06:36.153Z,6.90
2023-03-22T05:07:08.590Z,6.80
2023-03-22T05:07:41.012Z,7.40
2023-03-22T05:08:13.468Z,7.90
2023-03-22T05:08:45.938Z,6.80
2023-03-22T05:09:18.407Z,7.00
2023-03-22T05:09:50.904Z,7.60
2023-03-22T05:10:23.334Z,7.60
2023-03-22T05:10:55.879Z,7.70
2023-03-22T05:11:28.406Z,7.00
2023-03-22T05:12:00.943Z,6.50
2023-03-22T05:12:33.406Z,7.10
2023-03-22T05:13:05.860Z,7.30
2023-03-22T05:13:38.293Z,7.60
2023-03-22T05:14:10.788Z,7.50
2023-03-22T05:14:43.298Z,7.40
2023-03-22T05:15:15.725Z,7.20
2023-03-22T05:15:48.204Z,6.40
2023-03-22T05:16:20.670Z,6.90
2023-03-22T05:16:53.089Z,7.70
2023-03-22T05:17:25.537Z,8.20
2023-03-22T05:17:58.005Z,7.00
2023-03-22T05:18:30.507Z,6.10
2023-03-22T05:19:02.925Z,7.30
2023-03-22T05:19:35.381Z,7.30
2023-03-22T05:20:07.832Z,7.00
2023-03-22T05:20:40.576Z,7.10
2023-03-22T05:21:13.574Z,7.30
2023-03-22T05:21:46.053Z,6.90
2023-03-22T05:22:18.495Z,7.30
2023-03-22T05:22:50.957Z,7.90
2023-03-22T05:23:23.418Z,7.90
2023-03-22T05:23:55.882Z,8.50
2023-03-22T05:24:28.339Z,9.20
2023-03-22T05:25:02.248Z,9.00
2023-03-22T05:25:34.714Z,7.90
2023-03-22T05:26:07.131Z,6.80
2023-03-22T05:26:39.653Z,6.90
2023-03-22T05:27:12.156Z,7.20
2023-03-22T05:27:44.660Z,7.60
2023-03-22T05:28:17.150Z,7.90
2023-03-22T05:28:49.593Z,7.60
2023-03-22T05:29:22.225Z,7.60
2023-03-22T05:29:54.789Z,7.80
2023-03-22T05:30:27.223Z,7.70
2023-03-22T05:30:59.702Z,7.30
2023-03-22T05:31:32.250Z,7.70
2023-03-22T05:32:04.739Z,6.60
2023-03-22T05:32:37.209Z,6.70
2023-03-22T05:33:09.745Z,8.30
2023-03-22T05:33:42.244Z,7.70
2023-03-22T05:34:14.791Z,7.30
2023-03-22T05:34:47.284Z,7.50
2023-03-22T05:35:19.733Z,6.60
2023-03-22T05:35:52.253Z,6.40
2023-03-22T05:36:24.673Z,7.40
2023-03-22T05:36:57.134Z,7.20
2023-03-22T05:37:29.652Z,7.30
2023-03-22T05:38:02.158Z,7.10
2023-03-22T05:38:34.604Z,7.10
2023-03-22T05:39:07.049Z,7.40
2023-03-22T05:39:39.522Z,7.10
2023-03-22T05:40:11.987Z,7.00
2023-03-22T05:40:44.422Z,7.90
2023-03-22T05:41:16.856Z,8.40
2023-03-22T05:41:49.318Z,7.50
2023-03-22T05:42:21.795Z,7.20
2023-03-22T05:42:54.233Z,7.60
2023-03-22T05:43:26.656Z,7.80
2023-03-22T05:43:59.135Z,7.80
2023-03-22T05:44:31.573Z,7.40
2023-03-22T05:45:04.051Z,7.20
2023-03-22T05:45:36.612Z,7.30
2023-03-22T05:46:09.090Z,6.80
2023-03-22T05:46:41.521Z,7.30
2023-03-22T05:47:13.973Z,7.20
2023-03-22T05:47:46.428Z,6.50
2023-03-22T05:48:18.912Z,5.90
2023-03-22T05:48:51.347Z,6.70
2023-03-22T05:49:23.830Z,7.10
2023-03-22T05:49:56.345Z,7.50
2023-03-22T05:50:28.871Z,7.40
2023-03-22T05:51:01.447Z,6.60
2023-03-22T05:51:33.992Z,6.50
2023-03-22T05:52:06.479Z,7.40
2023-03-22T05:52:38.979Z,7.90
2023-03-22T05:53:11.455Z,7.70
2023-03-22T05:53:43.978Z,7.20
2023-03-22T05:54:17.087Z,7.10
2023-03-22T05:54:49.677Z,6.60
2023-03-22T05:55:22.161Z,6.20
2023-03-22T05:55:54.625Z,7.10
2023-03-22T05:56:27.122Z,8.20
2023-03-22T05:56:59.672Z,8.50
2023-03-22T05:57:32.204Z,7.20
2023-03-22T05:58:04.664Z,6.40
2023-03-22T05:58:37.713Z,5.90
2023-03-22T05:59:10.161Z,6.50
2023-03-22T05:59:42.618Z,6.50
2023-03-22T06:00:15.095Z,6.60
2023-03-22T06:00:47.545Z,6.50
2023-03-22T06:01:20.025Z,7.10
2023-03-22T06:01:52.544Z,7.30
2023-03-22T06:02:24.960Z,7.10
2023-03-22T06:02:57.441Z,6.60
2023-03-22T06:03:29.983Z,6.10
2023-03-22T06:04:02.422Z,5.70
2023-03-22T06:04:34.890Z,6.40
2023-03-22T06:05:07.349Z,6.70
2023-03-22T06:05:39.856Z,6.40
2023-03-22T06:06:12.367Z,7.00
2023-03-22T06:06:44.854Z,5.90
2023-03-22T06:07:17.344Z,6.80
2023-03-22T06:07:49.846Z,6.80
2023-03-22T06:08:23.677Z,5.70
2023-03-22T06:08:56.440Z,6.20
2023-03-22T06:09:27.259Z,5.80
2023-03-22T06:09:59.748Z,5.20
2023-03-22T06:10:32.186Z,5.90
2023-03-22T06:11:04.621Z,6.30
2023-03-22T06:11:37.079Z,5.90
2023-03-22T06:12:09.550Z,5.80
2023-03-22T06:12:42.077Z,6.50
2023-03-22T06:13:14.682Z,6.80
2023-03-22T06:13:47.084Z,6.50
2023-03-22T06:14:19.784Z,6.40
2023-03-22T06:14:52.473Z,6.30
2023-03-22T06:15:24.941Z,6.20
2023-03-22T06:15:57.491Z,5.70
2023-03-22T06:16:29.977Z,6.30
2023-03-22T06:17:02.368Z,5.80
2023-03-22T06:17:34.923Z,5.70
2023-03-22T06:18:07.357Z,6.00
2023-03-22T06:18:39.947Z,6.00
2023-03-22T06:19:12.410Z,5.90
2023-03-22T06:19:44.929Z,5.80
2023-03-22T06:20:17.401Z,5.60
2023-03-22T06:20:49.919Z,5.90
2023-03-22T06:21:22.447Z,6.00
2023-03-22T06:21:54.913Z,5.80
2023-03-22T06:22:27.352Z,5.20
2023-03-22T06:22:59.865Z,5.30
2023-03-22T06:23:32.322Z,5.40
2023-03-22T06:24:04.790Z,5.50
2023-03-22T06:24:37.233Z,5.90
2023-03-22T06:25:09.693Z,5.70
2023-03-22T06:25:42.130Z,5.30
2023-03-22T06:26:14.593Z,4.90
2023-03-22T06:26:47.132Z,4.90
2023-03-22T06:27:19.562Z,5.40
2023-03-22T06:27:52.010Z,5.30
2023-03-22T06:28:24.468Z,5.40
2023-03-22T06:28:56.949Z,6.30
2023-03-22T06:29:29.419Z,6.30
2023-03-22T06:30:01.879Z,5.40
2023-03-22T06:30:34.317Z,5.40
2023-03-22T06:31:06.799Z,6.10
2023-03-22T06:31:39.198Z,6.20
2023-03-22T06:32:11.705Z,6.00
2023-03-22T06:32:44.231Z,5.20
2023-03-22T06:33:16.744Z,5.00
2023-03-22T06:33:49.183Z,5.60
2023-03-22T06:34:21.629Z,5.90
2023-03-22T06:34:54.064Z,5.90
2023-03-22T06:35:26.527Z,4.90
2023-03-22T06:35:59.069Z,5.30
2023-03-22T06:36:31.504Z,5.80
2023-03-22T06:37:03.945Z,5.70
2023-03-22T06:37:36.398Z,6.20
2023-03-22T06:38:08.866Z,5.70
2023-03-22T06:38:41.359Z,5.30
2023-03-22T06:39:13.832Z,4.90
2023-03-22T06:39:46.261Z,5.40
2023-03-22T06:40:18.759Z,5.80
2023-03-22T06:40:51.204Z,5.70
2023-03-22T06:41:23.739Z,6.30
2023-03-22T06:41:56.194Z,6.10
2023-03-22T06:42:28.729Z,5.70
2023-03-22T06:43:03.976Z,5.70
2023-03-22T06:43:33.643Z,5.20
2023-03-22T06:44:06.073Z,5.00
2023-03-22T06:44:38.560Z,5.30
2023-03-22T06:45:11.021Z,6.30
2023-03-22T06:45:43.466Z,6.10
2023-03-22T06:46:16.000Z,6.00
2023-03-22T06:46:48.387Z,6.20
2023-03-22T06:47:20.852Z,5.80
2023-03-22T06:47:53.300Z,5.40
2023-03-22T06:48:25.755Z,5.10
2023-03-22T06:48:58.188Z,4.90
2023-03-22T06:49:30.666Z,4.90
2023-03-22T06:50:03.121Z,4.70
2023-03-22T06:50:35.598Z,5.10
2023-03-22T06:51:08.037Z,5.00
2023-03-22T06:51:40.470Z,5.30
2023-03-22T06:52:12.945Z,5.40
2023-03-22T06:52:45.417Z,5.40
2023-03-22T06:53:17.865Z,5.00
2023-03-22T06:53:50.351Z,5.00
2023-03-22T06:54:22.799Z,4.90
2023-03-22T06:54:55.268Z,4.30
2023-03-22T06:55:27.741Z,5.00
2023-03-22T06:56:00.186Z,5.00
2023-03-22T06:56:32.666Z,4.30
2023-03-22T06:57:05.172Z,5.40
2023-03-22T06:57:37.626Z,5.00
2023-03-22T06:58:10.096Z,4.60
2023-03-22T06:58:42.586Z,4.90
2023-03-22T06:59:15.105Z,5.60
2023-03-22T06:59:47.564Z,4.80
2023-03-22T07:00:20.017Z,4.00
2023-03-22T07:00:52.525Z,3.70
2023-03-22T07:01:25.141Z,4.00
2023-03-22T07:01:57.586Z,5.60
2023-03-22T07:02:30.042Z,5.50
2023-03-22T07:03:02.493Z,4.10
2023-03-22T07:03:34.947Z,4.50
2023-03-22T07:04:07.455Z,4.60
2023-03-22T07:04:39.929Z,4.50
2023-03-22T07:05:12.421Z,4.50
2023-03-22T07:05:44.913Z,4.50
2023-03-22T07:06:17.373Z,4.10
2023-03-22T07:06:49.821Z,4.40
2023-03-22T07:07:22.264Z,5.10
2023-03-22T07:07:54.722Z,4.70
2023-03-22T07:08:27.171Z,4.20
2023-03-22T07:08:59.662Z,4.30
2023-03-22T07:09:32.119Z,4.30
2023-03-22T07:10:04.598Z,4.80
2023-03-22T07:10:37.122Z,4.60
2023-03-22T07:11:09.491Z,4.50
2023-03-22T07:11:41.927Z,4.50
2023-03-22T07:12:14.431Z,5.20
2023-03-22T07:12:46.895Z,5.00
2023-03-22T07:13:19.388Z,3.90
2023-03-22T07:13:51.823Z,4.10